sensor_id;sensor_type;location;lat;lon;timestamp;pressure;altitude;pressure_sealevel;temperature;humidity
64889;BME280;51386;53.082;8.816;2023-02-25T00:00:34;100000.16;;;11.11;52.49
64889;BME280;51386;53.082;8.816;2023-02-25T00:03:01;99990.84;;;11.08;52.66
64889;BME280;51386;53.082;8.816;2023-02-25T00:05:29;100001.38;;;11.08;52.64
64889;BME280;51386;53.082;8.816;2023-02-25T00:07:57;99997.50;;;11.04;52.24
64889;BME280;51386;53.082;8.816;2023-02-25T00:10:24;99995.09;;;11.03;52.10
64889;BME280;51386;53.082;8.816;2023-02-25T00:12:51;99994.25;;;11.02;52.15
64889;BME280;51386;53.082;8.816;2023-02-25T00:15:20;99988.19;;;11.02;52.10
64889;BME280;51386;53.082;8.816;2023-02-25T00:17:47;99991.19;;;10.99;52.35
64889;BME280;51386;53.082;8.816;2023-02-25T00:20:17;99992.59;;;10.95;52.18
64889;BME280;51386;53.082;8.816;2023-02-25T00:22:48;99982.66;;;10.90;52.53
64889;BME280;51386;53.082;8.816;2023-02-25T00:25:15;99992.75;;;10.86;52.20
64889;BME280;51386;53.082;8.816;2023-02-25T00:27:45;99995.78;;;10.83;52.67
64889;BME280;51386;53.082;8.816;2023-02-25T00:30:12;99995.19;;;10.81;52.50
64889;BME280;51386;53.082;8.816;2023-02-25T00:32:40;100005.06;;;10.79;52.66
64889;BME280;51386;53.082;8.816;2023-02-25T00:35:08;100023.06;;;10.76;52.62
64889;BME280;51386;53.082;8.816;2023-02-25T00:37:38;100019.84;;;10.74;52.22
64889;BME280;51386;53.082;8.816;2023-02-25T00:40:08;100024.28;;;10.73;52.56
64889;BME280;51386;53.082;8.816;2023-02-25T00:42:41;100040.69;;;10.75;52.38
64889;BME280;51386;53.082;8.816;2023-02-25T00:45:10;100047.38;;;10.78;52.59
64889;BME280;51386;53.082;8.816;2023-02-25T00:47:38;100039.72;;;10.83;52.40
64889;BME280;51386;53.082;8.816;2023-02-25T00:50:08;100049.06;;;10.85;51.82
64889;BME280;51386;53.082;8.816;2023-02-25T00:52:36;100039.97;;;10.88;52.46
64889;BME280;51386;53.082;8.816;2023-02-25T00:55:05;100040.56;;;10.90;52.07
64889;BME280;51386;53.082;8.816;2023-02-25T00:57:32;100050.28;;;10.89;52.04
64889;BME280;51386;53.082;8.816;2023-02-25T00:59:59;100057.19;;;10.91;52.18
64889;BME280;51386;53.082;8.816;2023-02-25T01:02:26;100053.53;;;10.92;52.14
64889;BME280;51386;53.082;8.816;2023-02-25T01:04:53;100056.16;;;10.92;51.91
64889;BME280;51386;53.082;8.816;2023-02-25T01:07:21;100052.72;;;10.91;52.04
64889;BME280;51386;53.082;8.816;2023-02-25T01:09:48;100062.44;;;10.91;51.50
64889;BME280;51386;53.082;8.816;2023-02-25T01:12:15;100064.47;;;10.88;51.45
64889;BME280;51386;53.082;8.816;2023-02-25T01:14:42;100066.47;;;10.86;51.46
64889;BME280;51386;53.082;8.816;2023-02-25T01:17:10;100070.94;;;10.86;50.84
64889;BME280;51386;53.082;8.816;2023-02-25T01:19:37;100064.84;;;10.85;51.01
64889;BME280;51386;53.082;8.816;2023-02-25T01:22:04;100073.75;;;10.84;50.70
64889;BME280;51386;53.082;8.816;2023-02-25T01:24:34;100074.75;;;10.83;50.92
64889;BME280;51386;53.082;8.816;2023-02-25T01:27:02;100070.88;;;10.79;51.04
64889;BME280;51386;53.082;8.816;2023-02-25T01:29:33;100072.88;;;10.77;51.01
64889;BME280;51386;53.082;8.816;2023-02-25T01:32:02;100072.88;;;10.77;51.10
64889;BME280;51386;53.082;8.816;2023-02-25T01:34:30;100076.53;;;10.76;50.63
64889;BME280;51386;53.082;8.816;2023-02-25T01:36:58;100081.81;;;10.76;51.04
64889;BME280;51386;53.082;8.816;2023-02-25T01:39:26;100080.78;;;10.77;50.30
64889;BME280;51386;53.082;8.816;2023-02-25T01:41:57;100086.03;;;10.77;50.17
64889;BME280;51386;53.082;8.816;2023-02-25T01:44:30;100092.69;;;10.73;50.34
64889;BME280;51386;53.082;8.816;2023-02-25T01:46:58;100088.63;;;10.71;50.08
64889;BME280;51386;53.082;8.816;2023-02-25T01:49:33;100097.31;;;10.65;50.69
64889;BME280;51386;53.082;8.816;2023-02-25T01:52:06;100089.97;;;10.60;50.92
64889;BME280;51386;53.082;8.816;2023-02-25T01:54:35;100093.78;;;10.58;50.37
64889;BME280;51386;53.082;8.816;2023-02-25T01:57:07;100096.00;;;10.54;50.65
64889;BME280;51386;53.082;8.816;2023-02-25T01:59:36;100097.63;;;10.55;50.79
64889;BME280;51386;53.082;8.816;2023-02-25T02:02:06;100100.69;;;10.59;50.59
64889;BME280;51386;53.082;8.816;2023-02-25T02:04:36;100106.75;;;10.59;51.13
64889;BME280;51386;53.082;8.816;2023-02-25T02:07:06;100102.69;;;10.57;50.94
64889;BME280;51386;53.082;8.816;2023-02-25T02:09:33;100103.50;;;10.57;50.91
64889;BME280;51386;53.082;8.816;2023-02-25T02:12:05;100095.63;;;10.57;50.53
64889;BME280;51386;53.082;8.816;2023-02-25T02:14:37;100114.47;;;10.61;51.23
64889;BME280;51386;53.082;8.816;2023-02-25T02:17:19;100111.66;;;10.62;50.46
64889;BME280;51386;53.082;8.816;2023-02-25T02:20:12;100111.47;;;10.64;50.19
64889;BME280;51386;53.082;8.816;2023-02-25T02:22:54;100120.16;;;10.64;50.24
64889;BME280;51386;53.082;8.816;2023-02-25T02:25:51;100134.78;;;10.67;50.72
64889;BME280;51386;53.082;8.816;2023-02-25T02:32:08;100131.31;;;10.66;50.04
64889;BME280;51386;53.082;8.816;2023-02-25T02:34:45;100131.13;;;10.68;50.67
64889;BME280;51386;53.082;8.816;2023-02-25T02:37:28;100125.69;;;10.69;50.52
64889;BME280;51386;53.082;8.816;2023-02-25T02:40:15;100129.06;;;10.63;49.91
64889;BME280;51386;53.082;8.816;2023-02-25T02:43:04;100129.81;;;10.57;50.43
64889;BME280;51386;53.082;8.816;2023-02-25T02:45:40;100132.22;;;10.52;50.68
64889;BME280;51386;53.082;8.816;2023-02-25T02:48:15;100135.41;;;10.48;49.89
64889;BME280;51386;53.082;8.816;2023-02-25T02:50:49;100139.84;;;10.47;49.94
64889;BME280;51386;53.082;8.816;2023-02-25T02:53:24;100142.28;;;10.49;49.93
64889;BME280;51386;53.082;8.816;2023-02-25T02:55:57;100143.09;;;10.49;50.12
64889;BME280;51386;53.082;8.816;2023-02-25T02:58:31;100150.78;;;10.51;50.53
64889;BME280;51386;53.082;8.816;2023-02-25T03:01:05;100149.59;;;10.53;49.81
64889;BME280;51386;53.082;8.816;2023-02-25T03:03:38;100145.97;;;10.54;49.90
64889;BME280;51386;53.082;8.816;2023-02-25T03:06:11;100148.25;;;10.57;49.67
64889;BME280;51386;53.082;8.816;2023-02-25T03:08:43;100161.00;;;10.60;49.61
64889;BME280;51386;53.082;8.816;2023-02-25T03:11:12;100157.00;;;10.64;49.66
64889;BME280;51386;53.082;8.816;2023-02-25T03:13:40;100171.41;;;10.68;49.87
64889;BME280;51386;53.082;8.816;2023-02-25T03:16:13;100176.69;;;10.68;50.25
64889;BME280;51386;53.082;8.816;2023-02-25T03:18:52;100181.31;;;10.66;50.00
64889;BME280;51386;53.082;8.816;2023-02-25T03:21:30;100183.31;;;10.64;49.86
64889;BME280;51386;53.082;8.816;2023-02-25T03:24:03;100189.41;;;10.65;49.69
64889;BME280;51386;53.082;8.816;2023-02-25T03:26:33;100185.34;;;10.62;48.91
64889;BME280;51386;53.082;8.816;2023-02-25T03:29:02;100190.97;;;10.59;48.66
64889;BME280;51386;53.082;8.816;2023-02-25T03:31:34;100188.69;;;10.56;48.40
64889;BME280;51386;53.082;8.816;2023-02-25T03:34:10;100201.88;;;10.56;48.69
64889;BME280;51386;53.082;8.816;2023-02-25T03:36:41;100203.88;;;10.54;48.08
64889;BME280;51386;53.082;8.816;2023-02-25T03:39:14;100203.88;;;10.54;48.17
64889;BME280;51386;53.082;8.816;2023-02-25T03:41:47;100202.88;;;10.55;47.26
64889;BME280;51386;53.082;8.816;2023-02-25T03:44:22;100217.38;;;10.51;47.13
64889;BME280;51386;53.082;8.816;2023-02-25T03:46:51;100215.16;;;10.48;47.70
64889;BME280;51386;53.082;8.816;2023-02-25T03:49:27;100216.16;;;10.47;47.80
64889;BME280;51386;53.082;8.816;2023-02-25T03:51:58;100221.41;;;10.47;47.24
64889;BME280;51386;53.082;8.816;2023-02-25T03:54:27;100229.66;;;10.44;47.23
64889;BME280;51386;53.082;8.816;2023-02-25T03:56:54;100231.03;;;10.40;47.05
64889;BME280;51386;53.082;8.816;2023-02-25T03:59:22;100232.44;;;10.36;47.69
64889;BME280;51386;53.082;8.816;2023-02-25T04:01:53;100243.66;;;10.30;47.29
64889;BME280;51386;53.082;8.816;2023-02-25T04:04:22;100248.03;;;10.23;47.42
64889;BME280;51386;53.082;8.816;2023-02-25T04:06:49;100255.94;;;10.23;47.40
64889;BME280;51386;53.082;8.816;2023-02-25T04:09:16;100269.28;;;10.22;47.52
64889;BME280;51386;53.082;8.816;2023-02-25T04:11:44;100270.44;;;10.19;47.61
64889;BME280;51386;53.082;8.816;2023-02-25T04:14:11;100273.63;;;10.14;47.37
64889;BME280;51386;53.082;8.816;2023-02-25T04:16:37;100272.19;;;10.12;47.58
64889;BME280;51386;53.082;8.816;2023-02-25T04:19:04;100271.69;;;10.08;48.00
64889;BME280;51386;53.082;8.816;2023-02-25T04:21:35;100274.88;;;10.04;47.78
64889;BME280;51386;53.082;8.816;2023-02-25T04:24:03;100270.63;;;10.03;48.37
64889;BME280;51386;53.082;8.816;2023-02-25T04:26:32;100270.78;;;10.01;48.15
64889;BME280;51386;53.082;8.816;2023-02-25T04:29:00;100274.44;;;10.00;47.45
64889;BME280;51386;53.082;8.816;2023-02-25T04:31:26;100279.69;;;10.00;48.00
64889;BME280;51386;53.082;8.816;2023-02-25T04:33:54;100273.59;;;10.00;47.63
64889;BME280;51386;53.082;8.816;2023-02-25T04:36:27;100273.97;;;9.97;47.28
64889;BME280;51386;53.082;8.816;2023-02-25T04:38:58;100272.34;;;9.96;47.34
64889;BME280;51386;53.082;8.816;2023-02-25T04:41:29;100280.75;;;9.91;47.15
64889;BME280;51386;53.082;8.816;2023-02-25T04:43:57;100279.97;;;9.91;47.13
64889;BME280;51386;53.082;8.816;2023-02-25T04:46:24;100281.97;;;9.89;47.38
64889;BME280;51386;53.082;8.816;2023-02-25T04:48:51;100273.06;;;9.90;47.42
64889;BME280;51386;53.082;8.816;2023-02-25T04:51:18;100272.06;;;9.91;46.98
64889;BME280;51386;53.082;8.816;2023-02-25T04:53:47;100281.56;;;9.92;47.13
64889;BME280;51386;53.082;8.816;2023-02-25T04:56:15;100283.22;;;9.93;47.00
64889;BME280;51386;53.082;8.816;2023-02-25T04:58:42;100286.47;;;9.95;47.36
64889;BME280;51386;53.082;8.816;2023-02-25T05:01:11;100289.75;;;9.97;47.36
64889;BME280;51386;53.082;8.816;2023-02-25T05:03:39;100282.88;;;9.96;46.86
64889;BME280;51386;53.082;8.816;2023-02-25T05:06:07;100285.22;;;9.91;47.17
64889;BME280;51386;53.082;8.816;2023-02-25T05:08:35;100282.13;;;9.87;47.18
64889;BME280;51386;53.082;8.816;2023-02-25T05:11:03;100291.19;;;9.85;47.63
64889;BME280;51386;53.082;8.816;2023-02-25T05:13:32;100296.78;;;9.82;47.46
64889;BME280;51386;53.082;8.816;2023-02-25T05:16:07;100290.63;;;9.75;47.81
64889;BME280;51386;53.082;8.816;2023-02-25T05:18:36;100297.53;;;9.76;47.77
64889;BME280;51386;53.082;8.816;2023-02-25T05:21:07;100301.13;;;9.75;47.81
64889;BME280;51386;53.082;8.816;2023-02-25T05:23:35;100300.34;;;9.74;48.18
64889;BME280;51386;53.082;8.816;2023-02-25T05:26:02;100300.34;;;9.74;47.81
64889;BME280;51386;53.082;8.816;2023-02-25T05:28:28;100308.84;;;9.76;47.96
64889;BME280;51386;53.082;8.816;2023-02-25T05:30:57;100319.19;;;9.78;47.85
64889;BME280;51386;53.082;8.816;2023-02-25T05:33:25;100311.31;;;9.78;47.72
64889;BME280;51386;53.082;8.816;2023-02-25T05:35:52;100312.94;;;9.79;47.82
64889;BME280;51386;53.082;8.816;2023-02-25T05:38:19;100325.06;;;9.80;48.36
64889;BME280;51386;53.082;8.816;2023-02-25T05:40:46;100319.66;;;9.81;48.29
64889;BME280;51386;53.082;8.816;2023-02-25T05:43:13;100320.09;;;9.85;48.18
64889;BME280;51386;53.082;8.816;2023-02-25T05:45:40;100324.38;;;9.86;48.02
64889;BME280;51386;53.082;8.816;2023-02-25T05:48:08;100321.00;;;9.92;48.39
64889;BME280;51386;53.082;8.816;2023-02-25T05:50:35;100318.66;;;9.97;48.34
64889;BME280;51386;53.082;8.816;2023-02-25T05:53:07;100333.06;;;10.01;48.40
64889;BME280;51386;53.082;8.816;2023-02-25T05:55:40;100339.13;;;10.01;48.02
64889;BME280;51386;53.082;8.816;2023-02-25T05:58:07;100335.06;;;9.99;48.32
64889;BME280;51386;53.082;8.816;2023-02-25T06:00:35;100341.50;;;9.96;47.91
64889;BME280;51386;53.082;8.816;2023-02-25T06:03:04;100334.00;;;9.93;48.28
64889;BME280;51386;53.082;8.816;2023-02-25T06:05:32;100337.41;;;9.94;48.12
64889;BME280;51386;53.082;8.816;2023-02-25T06:08:00;100340.03;;;9.94;47.58
64889;BME280;51386;53.082;8.816;2023-02-25T06:10:27;100346.31;;;9.93;47.28
64889;BME280;51386;53.082;8.816;2023-02-25T06:12:54;100351.91;;;9.90;48.00
64889;BME280;51386;53.082;8.816;2023-02-25T06:15:20;100349.28;;;9.90;47.31
64889;BME280;51386;53.082;8.816;2023-02-25T06:17:49;100360.44;;;9.92;47.77
64889;BME280;51386;53.082;8.816;2023-02-25T06:20:16;100361.25;;;9.92;47.30
64889;BME280;51386;53.082;8.816;2023-02-25T06:22:45;100371.41;;;9.95;47.46
64889;BME280;51386;53.082;8.816;2023-02-25T06:25:12;100385.19;;;9.97;47.71
64889;BME280;51386;53.082;8.816;2023-02-25T06:27:38;100390.91;;;10.01;47.94
64889;BME280;51386;53.082;8.816;2023-02-25T06:30:07;100386.94;;;10.05;47.48
64889;BME280;51386;53.082;8.816;2023-02-25T06:32:34;100373.78;;;10.05;47.91
64889;BME280;51386;53.082;8.816;2023-02-25T06:35:01;100378.03;;;10.06;46.94
64889;BME280;51386;53.082;8.816;2023-02-25T06:37:28;100381.41;;;10.00;47.18
64889;BME280;51386;53.082;8.816;2023-02-25T06:39:57;100386.19;;;9.96;46.86
64889;BME280;51386;53.082;8.816;2023-02-25T06:42:24;100389.00;;;9.95;47.01
64889;BME280;51386;53.082;8.816;2023-02-25T06:44:51;100393.44;;;9.94;46.66
64889;BME280;51386;53.082;8.816;2023-02-25T06:47:18;100394.06;;;9.96;47.29
64889;BME280;51386;53.082;8.816;2023-02-25T06:49:44;100401.41;;;10.01;47.54
64889;BME280;51386;53.082;8.816;2023-02-25T06:52:11;100400.72;;;10.07;47.06
64889;BME280;51386;53.082;8.816;2023-02-25T06:54:38;100399.22;;;10.12;47.18
64889;BME280;51386;53.082;8.816;2023-02-25T06:57:06;100408.38;;;10.16;46.92
64889;BME280;51386;53.082;8.816;2023-02-25T06:59:33;100416.69;;;10.20;46.91
64889;BME280;51386;53.082;8.816;2023-02-25T07:02:01;100417.38;;;10.22;46.53
64889;BME280;51386;53.082;8.816;2023-02-25T07:04:28;100428.53;;;10.24;46.76
64889;BME280;51386;53.082;8.816;2023-02-25T07:06:55;100433.41;;;10.27;46.98
64889;BME280;51386;53.082;8.816;2023-02-25T07:09:22;100445.22;;;10.31;47.38
64889;BME280;51386;53.082;8.816;2023-02-25T07:11:49;100443.22;;;10.33;47.20
64889;BME280;51386;53.082;8.816;2023-02-25T07:14:17;100451.94;;;10.34;46.95
64889;BME280;51386;53.082;8.816;2023-02-25T07:16:44;100459.34;;;10.30;46.69
64889;BME280;51386;53.082;8.816;2023-02-25T07:19:11;100460.44;;;10.21;46.25
64889;BME280;51386;53.082;8.816;2023-02-25T07:21:43;100461.78;;;10.17;47.04
64889;BME280;51386;53.082;8.816;2023-02-25T07:24:11;100470.34;;;10.11;46.35
64889;BME280;51386;53.082;8.816;2023-02-25T07:26:39;100471.91;;;10.05;47.14
64889;BME280;51386;53.082;8.816;2023-02-25T07:29:06;100482.66;;;9.96;46.98
64889;BME280;51386;53.082;8.816;2023-02-25T07:31:34;100485.63;;;9.93;47.96
64889;BME280;51386;53.082;8.816;2023-02-25T07:34:01;100495.13;;;9.94;48.16
64889;BME280;51386;53.082;8.816;2023-02-25T07:36:31;100501.06;;;9.96;47.58
64889;BME280;51386;53.082;8.816;2023-02-25T07:38:59;100499.41;;;9.95;47.63
64889;BME280;51386;53.082;8.816;2023-02-25T07:41:28;100494.34;;;9.93;47.09
64889;BME280;51386;53.082;8.816;2023-02-25T07:43:55;100509.63;;;9.90;47.15
64889;BME280;51386;53.082;8.816;2023-02-25T07:46:22;100503.09;;;9.86;47.58
64889;BME280;51386;53.082;8.816;2023-02-25T07:48:50;100517.56;;;9.82;47.37
64889;BME280;51386;53.082;8.816;2023-02-25T07:51:21;100507.22;;;9.80;47.66
64889;BME280;51386;53.082;8.816;2023-02-25T07:53:51;100503.78;;;9.80;47.11
64889;BME280;51386;53.082;8.816;2023-02-25T07:56:21;100504.16;;;9.77;46.96
64889;BME280;51386;53.082;8.816;2023-02-25T07:58:48;100506.13;;;9.75;47.47
64889;BME280;51386;53.082;8.816;2023-02-25T08:01:20;100513.84;;;9.76;47.21
64889;BME280;51386;53.082;8.816;2023-02-25T08:03:52;100514.28;;;9.80;47.16
64889;BME280;51386;53.082;8.816;2023-02-25T08:06:20;100519.69;;;9.86;47.10
64889;BME280;51386;53.082;8.816;2023-02-25T08:08:48;100522.59;;;9.91;47.41
64889;BME280;51386;53.082;8.816;2023-02-25T08:11:19;100524.53;;;9.97;47.67
64889;BME280;51386;53.082;8.816;2023-02-25T08:13:46;100520.84;;;10.06;47.44
64889;BME280;51386;53.082;8.816;2023-02-25T08:16:16;100526.88;;;10.15;46.92
64889;BME280;51386;53.082;8.816;2023-02-25T08:18:44;100541.66;;;10.16;46.89
64889;BME280;51386;53.082;8.816;2023-02-25T08:21:17;100536.22;;;10.17;46.71
64889;BME280;51386;53.082;8.816;2023-02-25T08:23:48;100540.31;;;10.20;46.63
64889;BME280;51386;53.082;8.816;2023-02-25T08:26:15;100540.97;;;10.22;46.72
64889;BME280;51386;53.082;8.816;2023-02-25T08:28:44;100539.97;;;10.23;46.39
64889;BME280;51386;53.082;8.816;2023-02-25T08:31:11;100544.59;;;10.21;45.65
64889;BME280;51386;53.082;8.816;2023-02-25T08:33:42;100546.25;;;10.22;46.08
64889;BME280;51386;53.082;8.816;2023-02-25T08:36:14;100553.34;;;10.36;45.64
64889;BME280;51386;53.082;8.816;2023-02-25T08:38:42;100552.38;;;10.52;44.64
64889;BME280;51386;53.082;8.816;2023-02-25T08:41:10;100551.13;;;10.62;42.51
64889;BME280;51386;53.082;8.816;2023-02-25T08:43:38;100559.81;;;10.63;41.32
64889;BME280;51386;53.082;8.816;2023-02-25T08:46:07;100558.78;;;10.72;39.80
64889;BME280;51386;53.082;8.816;2023-02-25T08:48:35;100561.50;;;10.78;39.61
64889;BME280;51386;53.082;8.816;2023-02-25T08:51:04;100578.84;;;10.87;39.62
64889;BME280;51386;53.082;8.816;2023-02-25T08:53:36;100585.84;;;10.95;39.72
64889;BME280;51386;53.082;8.816;2023-02-25T08:56:05;100594.28;;;11.20;39.49
64889;BME280;51386;53.082;8.816;2023-02-25T08:58:32;100584.31;;;11.66;38.75
64889;BME280;51386;53.082;8.816;2023-02-25T09:00:59;100599.81;;;12.04;38.31
64889;BME280;51386;53.082;8.816;2023-02-25T09:03:27;100599.28;;;12.37;36.71
64889;BME280;51386;53.082;8.816;2023-02-25T09:05:55;100602.97;;;12.63;35.56
64889;BME280;51386;53.082;8.816;2023-02-25T09:08:22;100605.28;;;12.73;35.53
64889;BME280;51386;53.082;8.816;2023-02-25T09:10:50;100608.72;;;12.95;35.64
64889;BME280;51386;53.082;8.816;2023-02-25T09:13:17;100619.47;;;12.93;35.46
64889;BME280;51386;53.082;8.816;2023-02-25T09:15:44;100624.66;;;12.80;35.96
64889;BME280;51386;53.082;8.816;2023-02-25T09:18:11;100621.78;;;12.54;35.29
64889;BME280;51386;53.082;8.816;2023-02-25T09:20:38;100634.13;;;12.26;35.21
64889;BME280;51386;53.082;8.816;2023-02-25T09:23:05;100633.22;;;12.61;35.67
64889;BME280;51386;53.082;8.816;2023-02-25T09:25:32;100639.56;;;13.49;34.81
64889;BME280;51386;53.082;8.816;2023-02-25T09:28:00;100635.84;;;14.45;33.09
64889;BME280;51386;53.082;8.816;2023-02-25T09:30:27;100633.78;;;14.60;32.01
64889;BME280;51386;53.082;8.816;2023-02-25T09:32:54;100647.63;;;14.36;31.73
64889;BME280;51386;53.082;8.816;2023-02-25T09:35:21;100658.53;;;14.07;32.45
64889;BME280;51386;53.082;8.816;2023-02-25T09:37:48;100666.50;;;13.66;32.41
64889;BME280;51386;53.082;8.816;2023-02-25T09:40:18;100673.00;;;13.29;33.10
64889;BME280;51386;53.082;8.816;2023-02-25T09:43:02;100674.94;;;13.48;33.73
64889;BME280;51386;53.082;8.816;2023-02-25T09:45:34;100679.94;;;14.12;33.16
64889;BME280;51386;53.082;8.816;2023-02-25T09:48:13;100680.22;;;14.43;32.36
64889;BME280;51386;53.082;8.816;2023-02-25T09:50:46;100687.19;;;14.77;32.36
64889;BME280;51386;53.082;8.816;2023-02-25T09:53:21;100690.44;;;14.79;30.82
64889;BME280;51386;53.082;8.816;2023-02-25T09:55:52;100696.56;;;14.86;31.54
64889;BME280;51386;53.082;8.816;2023-02-25T09:58:29;100709.59;;;15.53;30.57
64889;BME280;51386;53.082;8.816;2023-02-25T10:01:04;100705.88;;;15.80;29.88
64889;BME280;51386;53.082;8.816;2023-02-25T10:03:46;100709.53;;;15.79;29.39
64889;BME280;51386;53.082;8.816;2023-02-25T10:06:23;100717.38;;;15.48;29.01
64889;BME280;51386;53.082;8.816;2023-02-25T10:09:02;100729.22;;;15.06;29.91
64889;BME280;51386;53.082;8.816;2023-02-25T10:11:45;100732.06;;;14.85;30.15
64889;BME280;51386;53.082;8.816;2023-02-25T10:14:41;100736.13;;;15.27;29.97
64889;BME280;51386;53.082;8.816;2023-02-25T10:17:21;100736.84;;;15.99;29.59
64889;BME280;51386;53.082;8.816;2023-02-25T10:20:13;100750.97;;;16.82;28.98
64889;BME280;51386;53.082;8.816;2023-02-25T10:22:54;100756.78;;;17.22;27.84
64889;BME280;51386;53.082;8.816;2023-02-25T10:25:29;100762.56;;;17.43;27.26
64889;BME280;51386;53.082;8.816;2023-02-25T10:28:00;100762.94;;;17.90;27.29
64889;BME280;51386;53.082;8.816;2023-02-25T10:30:35;100756.56;;;18.27;26.31
64889;BME280;51386;53.082;8.816;2023-02-25T10:33:17;100762.19;;;18.67;26.38
64889;BME280;51386;53.082;8.816;2023-02-25T10:35:52;100756.22;;;19.36;25.32
64889;BME280;51386;53.082;8.816;2023-02-25T10:38:22;100766.09;;;19.47;25.04
64889;BME280;51386;53.082;8.816;2023-02-25T10:40:57;100765.19;;;19.53;25.18
64889;BME280;51386;53.082;8.816;2023-02-25T10:43:26;100774.22;;;19.52;24.88
64889;BME280;51386;53.082;8.816;2023-02-25T10:46:02;100770.22;;;19.20;24.49
64889;BME280;51386;53.082;8.816;2023-02-25T10:48:33;100789.25;;;18.70;24.78
64889;BME280;51386;53.082;8.816;2023-02-25T10:51:05;100788.81;;;18.55;25.77
64889;BME280;51386;53.082;8.816;2023-02-25T10:53:35;100774.53;;;18.79;25.88
64889;BME280;51386;53.082;8.816;2023-02-25T10:56:03;100776.44;;;19.02;25.47
64889;BME280;51386;53.082;8.816;2023-02-25T10:58:38;100779.75;;;19.16;25.54
64889;BME280;51386;53.082;8.816;2023-02-25T11:01:12;100776.31;;;19.38;24.60
64889;BME280;51386;53.082;8.816;2023-02-25T11:03:50;100782.59;;;19.44;24.35
64889;BME280;51386;53.082;8.816;2023-02-25T11:06:24;100789.09;;;18.65;24.46
64889;BME280;51386;53.082;8.816;2023-02-25T11:08:54;100805.19;;;17.86;25.42
64889;BME280;51386;53.082;8.816;2023-02-25T11:11:26;100807.91;;;17.30;26.20
64889;BME280;51386;53.082;8.816;2023-02-25T11:14:04;100811.59;;;17.29;26.65
64889;BME280;51386;53.082;8.816;2023-02-25T11:16:36;100811.63;;;17.47;26.20
64889;BME280;51386;53.082;8.816;2023-02-25T11:19:25;100814.09;;;17.24;25.95
64889;BME280;51386;53.082;8.816;2023-02-25T11:21:54;100818.94;;;17.03;26.07
64889;BME280;51386;53.082;8.816;2023-02-25T11:24:30;100815.81;;;16.74;25.96
64889;BME280;51386;53.082;8.816;2023-02-25T11:27:01;100829.00;;;16.50;26.69
64889;BME280;51386;53.082;8.816;2023-02-25T11:29:34;100823.56;;;16.32;27.13
64889;BME280;51386;53.082;8.816;2023-02-25T11:32:14;100818.84;;;16.34;26.98
64889;BME280;51386;53.082;8.816;2023-02-25T11:34:48;100835.16;;;16.44;26.99
64889;BME280;51386;53.082;8.816;2023-02-25T11:37:29;100831.13;;;16.21;26.65
64889;BME280;51386;53.082;8.816;2023-02-25T11:40:01;100834.84;;;16.14;26.32
64889;BME280;51386;53.082;8.816;2023-02-25T11:42:28;100833.56;;;16.30;26.37
64889;BME280;51386;53.082;8.816;2023-02-25T11:44:59;100829.75;;;16.70;26.28
64889;BME280;51386;53.082;8.816;2023-02-25T11:47:31;100833.66;;;16.67;25.84
64889;BME280;51386;53.082;8.816;2023-02-25T11:50:14;100849.47;;;16.49;26.27
64889;BME280;51386;53.082;8.816;2023-02-25T11:52:51;100846.25;;;16.27;25.85
64889;BME280;51386;53.082;8.816;2023-02-25T11:55:54;100843.25;;;15.98;26.95
64889;BME280;51386;53.082;8.816;2023-02-25T11:58:40;100847.78;;;15.71;27.26
64889;BME280;51386;53.082;8.816;2023-02-25T12:01:20;100861.19;;;15.43;27.24
64889;BME280;51386;53.082;8.816;2023-02-25T12:04:26;100866.47;;;15.24;27.84
64889;BME280;51386;53.082;8.816;2023-02-25T12:07:40;100859.34;;;15.31;27.29
64889;BME280;51386;53.082;8.816;2023-02-25T12:17:52;100883.09;;;15.85;26.82
64889;BME280;51386;53.082;8.816;2023-02-25T12:21:09;100882.81;;;16.19;26.86
64889;BME280;51386;53.082;8.816;2023-02-25T12:24:27;100884.63;;;16.51;27.10
64889;BME280;51386;53.082;8.816;2023-02-25T12:27:34;100895.69;;;16.92;26.56
64889;BME280;51386;53.082;8.816;2023-02-25T12:30:46;100894.94;;;16.79;26.18
64889;BME280;51386;53.082;8.816;2023-02-25T12:36:35;100893.31;;;15.94;26.52
64889;BME280;51386;53.082;8.816;2023-02-25T12:39:31;100889.03;;;15.80;27.05
64889;BME280;51386;53.082;8.816;2023-02-25T12:42:21;100894.53;;;15.66;26.64
64889;BME280;51386;53.082;8.816;2023-02-25T12:45:20;100898.63;;;15.88;26.54
64889;BME280;51386;53.082;8.816;2023-02-25T12:48:20;100902.22;;;16.26;25.75
64889;BME280;51386;53.082;8.816;2023-02-25T12:51:05;100900.56;;;16.51;25.65
64889;BME280;51386;53.082;8.816;2023-02-25T12:53:54;100913.69;;;16.97;25.71
64889;BME280;51386;53.082;8.816;2023-02-25T12:57:02;100906.91;;;17.01;25.10
64889;BME280;51386;53.082;8.816;2023-02-25T13:00:02;100916.81;;;16.81;25.57
64889;BME280;51386;53.082;8.816;2023-02-25T13:02:52;100918.94;;;16.59;25.56
64889;BME280;51386;53.082;8.816;2023-02-25T13:05:45;100915.88;;;16.56;25.14
64889;BME280;51386;53.082;8.816;2023-02-25T13:11:32;100923.94;;;16.93;24.83
64889;BME280;51386;53.082;8.816;2023-02-25T13:14:45;100933.16;;;17.29;25.27
64889;BME280;51386;53.082;8.816;2023-02-25T13:17:56;100931.72;;;17.71;24.26
64889;BME280;51386;53.082;8.816;2023-02-25T13:20:49;100938.59;;;18.27;23.60
64889;BME280;51386;53.082;8.816;2023-02-25T13:23:47;100938.34;;;18.72;23.18
64889;BME280;51386;53.082;8.816;2023-02-25T13:26:36;100944.28;;;18.56;22.77
64889;BME280;51386;53.082;8.816;2023-02-25T13:29:37;100947.25;;;18.41;23.30
64889;BME280;51386;53.082;8.816;2023-02-25T13:32:23;100942.13;;;18.21;22.89
64889;BME280;51386;53.082;8.816;2023-02-25T13:35:14;100948.41;;;18.09;23.45
64889;BME280;51386;53.082;8.816;2023-02-25T13:37:58;100950.44;;;18.07;23.26
64889;BME280;51386;53.082;8.816;2023-02-25T13:40:50;100950.94;;;17.97;23.17